Terminal Aerodrome Forecast
Issued by NWS Austin/San Antonio, TX

Home | Current Version | Previous Version | Text Only | Print | Product List | Glossary On
Versions: 1 2 3 4 5 6 7 8 9 10 11 12 13 14 15 16 17 18 19 20 21 22 23 24 25 26 27
000
FTUS44 KEWX 010500 CCA
TAFDRT
TAF COR
KDRT 010546Z 0106/0206 11006KT 6SM BR OVC008
      TEMPO 0108/0110 2SM SHRA BKN005
     FM011000 11004KT 1/2SM FG OVC004
     FM011500 32005KT 5SM BR OVC008
     FM011800 33011KT P6SM OVC050
     FM020100 34014G24KT P6SM BKN150=

USA.gov is the U.S. government's official web portal to all federal, state and local government web resources and services.